Аэропорт: Мурманск. Мурманск

ICAO: ULMM

METAR:
2022-06-26 10:30:00
ULMM 261030Z 03005MPS 350V060 9999 SCT023 15/10 Q1020 R31/090070 NOSIG RMK QFE758
METAR:
2022-06-26 07:50:00
TAF ULMM 260750Z 2609/2709 02003G08MPS 9999 SCT020 TEMPO 2609/2616 05006G12MPS -SHRA BKN016CB BECMG 2616/2618 08003G08MPS